createdAt,value
2023-02-08T00:04:18.342Z,-5.40
2023-02-08T00:09:21.866Z,-5.50
2023-02-08T00:14:25.462Z,-5.50
2023-02-08T00:19:30.688Z,-5.60
2023-02-08T00:24:34.330Z,-5.60
2023-02-08T00:29:38.072Z,-5.60
2023-02-08T00:34:43.617Z,-5.50
2023-02-08T00:39:47.238Z,-5.50
2023-02-08T00:44:51.010Z,-5.50
2023-02-08T00:49:56.453Z,-5.60
2023-02-08T00:55:00.709Z,-5.60
2023-02-08T01:00:06.708Z,-5.60
2023-02-08T01:05:12.294Z,-5.80
2023-02-08T01:10:16.640Z,-5.70
2023-02-08T01:15:20.096Z,-5.70
2023-02-08T01:20:25.072Z,-5.80
2023-02-08T01:25:28.985Z,-5.90
2023-02-08T01:30:32.641Z,-6.00
2023-02-08T01:35:38.001Z,-6.00
2023-02-08T01:40:42.748Z,-6.00
2023-02-08T01:45:46.626Z,-5.90
2023-02-08T01:50:55.822Z,-5.90
2023-02-08T01:56:06.411Z,-5.80
2023-02-08T02:01:12.127Z,-5.90
2023-02-08T02:06:21.400Z,-5.90
2023-02-08T02:11:24.922Z,-5.90
2023-02-08T02:16:30.312Z,-5.90
2023-02-08T02:21:58.120Z,-6.00
2023-02-08T02:27:25.437Z,-6.00
2023-02-08T02:32:44.796Z,-6.10
2023-02-08T02:45:00.673Z,-6.20
2023-02-08T02:50:13.875Z,-6.20
2023-02-08T02:55:23.646Z,-6.10
2023-02-08T03:00:28.933Z,-6.10
2023-02-08T03:05:34.151Z,-6.10
2023-02-08T03:10:54.293Z,-5.90
2023-02-08T03:16:11.103Z,-5.90
2023-02-08T03:21:25.451Z,-6.10
2023-02-08T03:26:34.836Z,-6.20
2023-02-08T03:31:44.143Z,-6.20
2023-02-08T03:36:52.419Z,-6.10
2023-02-08T03:41:59.262Z,-6.20
2023-02-08T03:47:08.118Z,-6.20
2023-02-08T03:52:13.042Z,-6.10
2023-02-08T03:57:21.329Z,-6.20
2023-02-08T04:02:28.194Z,-6.20
2023-02-08T04:07:33.651Z,-6.30
2023-02-08T04:12:37.167Z,-6.30
2023-02-08T04:17:40.805Z,-6.30
2023-02-08T04:22:46.200Z,-6.20
2023-02-08T04:27:49.605Z,-6.30
2023-02-08T04:32:53.827Z,-6.20
2023-02-08T04:37:59.239Z,-6.30
2023-02-08T04:43:03.533Z,-6.30
2023-02-08T04:48:07.459Z,-6.20
2023-02-08T04:53:12.998Z,-6.20
2023-02-08T04:58:17.216Z,-6.10
2023-02-08T05:03:20.658Z,-6.20
2023-02-08T05:08:25.901Z,-6.30
2023-02-08T05:13:30.040Z,-6.30
2023-02-08T05:18:33.544Z,-6.30
2023-02-08T05:23:38.980Z,-6.20
2023-02-08T05:28:42.525Z,-6.10
2023-02-08T05:33:46.524Z,-6.10
2023-02-08T05:38:53.658Z,-6.10
2023-02-08T05:43:57.432Z,-6.30
2023-02-08T05:49:02.206Z,-6.50
2023-02-08T05:54:07.449Z,-6.30
2023-02-08T05:59:11.808Z,-6.40
2023-02-08T06:04:15.359Z,-6.40
2023-02-08T06:09:20.272Z,-6.30
2023-02-08T06:14:23.384Z,-6.30
2023-02-08T06:19:26.904Z,-6.30
2023-02-08T06:24:31.858Z,-6.30
2023-02-08T06:29:35.023Z,-6.20
2023-02-08T06:34:38.538Z,-6.30
2023-02-08T06:39:43.202Z,-6.30
2023-02-08T06:44:54.932Z,-6.20
2023-02-08T06:49:59.210Z,-6.00
2023-02-08T06:55:04.451Z,-6.00
2023-02-08T07:00:09.975Z,-5.90
2023-02-08T07:05:15.215Z,-5.80
2023-02-08T07:10:19.932Z,-5.70
2023-02-08T07:15:23.986Z,-5.70
2023-02-08T07:20:27.312Z,-5.60
2023-02-08T07:25:32.032Z,-5.40
2023-02-08T07:30:36.801Z,-5.30
2023-02-08T07:35:40.265Z,-5.10
2023-02-08T07:40:45.177Z,-4.90
2023-02-08T07:45:48.583Z,-4.70
2023-02-08T07:50:52.131Z,-4.50
2023-02-08T07:55:57.104Z,-4.20
2023-02-08T08:01:07.057Z,-3.80
2023-02-08T08:06:15.861Z,-3.50
2023-02-08T08:11:22.768Z,-3.30
2023-02-08T08:16:26.142Z,-2.90
2023-02-08T08:21:29.565Z,-2.70
2023-02-08T08:26:35.269Z,-2.60
2023-02-08T08:31:38.880Z,-2.20
2023-02-08T08:36:42.433Z,-2.00
2023-02-08T08:41:47.475Z,-1.90
2023-02-08T08:46:50.855Z,-1.70
2023-02-08T08:51:54.942Z,-1.50
2023-02-08T08:57:01.667Z,-1.20
2023-02-08T09:02:06.146Z,0.10
2023-02-08T09:07:11.037Z,1.30
2023-02-08T09:12:16.862Z,2.10
2023-02-08T09:17:20.872Z,3.10
2023-02-08T09:22:24.881Z,3.60
2023-02-08T09:27:30.372Z,4.00
2023-02-08T09:32:34.241Z,4.00
2023-02-08T09:37:38.390Z,4.50
2023-02-08T09:42:47.136Z,4.70
2023-02-08T09:47:58.253Z,5.20
2023-02-08T09:53:08.137Z,4.80
2023-02-08T09:58:20.011Z,4.50
2023-02-08T10:03:34.395Z,3.70
2023-02-08T10:08:38.140Z,3.10
2023-02-08T10:13:59.904Z,1.90
2023-02-08T10:19:13.546Z,1.40
2023-02-08T10:24:54.261Z,1.30
2023-02-08T10:30:17.480Z,1.50
2023-02-08T10:35:27.357Z,1.70
2023-02-08T10:40:35.773Z,1.60
2023-02-08T10:45:48.027Z,1.50
2023-02-08T10:50:51.565Z,1.40
2023-02-08T10:55:55.040Z,1.70
2023-02-08T11:01:01.222Z,2.00
2023-02-08T11:06:06.298Z,3.00
2023-02-08T11:11:10.578Z,2.60
2023-02-08T11:16:22.353Z,2.60
2023-02-08T11:21:29.795Z,2.90
2023-02-08T11:26:36.878Z,2.70
2023-02-08T11:31:57.811Z,2.60
2023-02-08T11:37:04.583Z,3.40
2023-02-08T11:42:17.623Z,3.50
2023-02-08T11:47:27.121Z,2.70
2023-02-08T11:52:35.441Z,3.00
2023-02-08T11:57:52.355Z,3.30
2023-02-08T12:03:00.229Z,2.80
2023-02-08T12:08:09.882Z,2.70
2023-02-08T12:13:33.781Z,2.40
2023-02-08T12:19:01.312Z,3.00
2023-02-08T12:24:14.661Z,2.80
2023-02-08T12:29:47.647Z,2.60
2023-02-08T12:35:03.970Z,2.90
2023-02-08T12:40:39.824Z,3.50
2023-02-08T12:46:00.942Z,4.10
2023-02-08T12:51:18.815Z,4.50
2023-02-08T12:56:25.231Z,5.80
2023-02-08T13:01:34.141Z,6.20
2023-02-08T13:06:42.744Z,6.10
2023-02-08T13:11:53.362Z,5.90
2023-02-08T13:17:04.679Z,5.00
2023-02-08T13:22:12.934Z,5.30
2023-02-08T13:27:17.827Z,6.10
2023-02-08T13:32:29.834Z,6.60
2023-02-08T13:37:35.707Z,6.00
2023-02-08T13:42:43.100Z,6.50
2023-02-08T13:47:52.057Z,6.10
2023-02-08T13:52:57.182Z,5.90
2023-02-08T13:58:02.328Z,5.40
2023-02-08T14:03:21.148Z,4.80
2023-02-08T14:08:30.476Z,5.10
2023-02-08T14:13:38.868Z,5.30
2023-02-08T14:18:52.038Z,4.60
2023-02-08T14:24:04.989Z,3.90
2023-02-08T14:29:08.350Z,3.40
2023-02-08T14:34:27.256Z,2.70
2023-02-08T14:39:34.556Z,2.40
2023-02-08T14:45:00.496Z,2.20
2023-02-08T14:50:13.800Z,2.00
2023-02-08T14:55:26.614Z,1.80
2023-02-08T15:00:34.238Z,1.60
2023-02-08T15:05:48.944Z,1.60
2023-02-08T15:10:55.412Z,1.50
2023-02-08T15:15:59.291Z,1.30
2023-02-08T15:21:04.893Z,1.30
2023-02-08T15:26:21.944Z,1.10
2023-02-08T15:31:30.395Z,0.90
2023-02-08T15:36:37.298Z,0.60
2023-02-08T15:41:42.259Z,0.30
2023-02-08T15:46:47.154Z,0.10
2023-02-08T15:51:51.093Z,0.00
2023-02-08T15:57:02.047Z,-0.20
2023-02-08T16:02:19.621Z,-0.30
2023-02-08T16:07:27.808Z,-0.50
2023-02-08T16:12:32.886Z,-0.70
2023-02-08T16:17:41.773Z,-0.60
2023-02-08T16:22:55.846Z,-0.70
2023-02-08T16:28:00.644Z,-0.90
2023-02-08T16:33:07.989Z,-1.10
2023-02-08T16:38:21.802Z,-1.00
2023-02-08T16:43:28.369Z,-0.80
2023-02-08T16:48:35.984Z,-0.90
2023-02-08T16:53:42.556Z,-1.00
2023-02-08T16:58:47.831Z,-0.80
2023-02-08T17:03:53.091Z,-0.60
2023-02-08T17:08:57.129Z,-0.60
2023-02-08T17:14:02.158Z,-0.40
2023-02-08T17:19:06.010Z,-0.60
2023-02-08T17:24:09.644Z,-0.90
2023-02-08T17:29:15.411Z,-1.00
2023-02-08T17:34:19.100Z,-1.20
2023-02-08T17:39:22.607Z,-1.40
2023-02-08T17:44:27.450Z,-1.60
2023-02-08T17:49:30.940Z,-1.60
2023-02-08T17:54:36.761Z,-1.60
2023-02-08T17:59:42.134Z,-1.70
2023-02-08T18:04:45.801Z,-1.60
2023-02-08T18:09:49.429Z,-1.60
2023-02-08T18:14:55.057Z,-1.70
2023-02-08T18:19:58.891Z,-1.60
2023-02-08T18:25:02.606Z,-1.70
2023-02-08T18:30:09.807Z,-1.90
2023-02-08T18:35:14.782Z,-1.80
2023-02-08T18:40:18.872Z,-1.80
2023-02-08T18:45:24.002Z,-1.70
2023-02-08T18:50:29.001Z,-1.60
2023-02-08T18:55:33.681Z,-1.70
2023-02-08T19:00:38.864Z,-1.50
2023-02-08T19:05:42.878Z,-1.40
2023-02-08T19:10:46.690Z,-1.00
2023-02-08T19:15:51.936Z,-1.10
2023-02-08T19:20:55.565Z,-1.00
2023-02-08T19:26:01.968Z,-1.00
2023-02-08T19:31:12.413Z,-1.20
2023-02-08T19:36:17.822Z,-1.20
2023-02-08T19:41:23.705Z,-1.30
2023-02-08T19:46:29.088Z,-1.20
2023-02-08T19:51:37.111Z,-1.20
2023-02-08T19:56:41.492Z,-1.10
2023-02-08T20:01:47.532Z,-1.40
2023-02-08T20:06:52.826Z,-1.40
2023-02-08T20:11:58.070Z,-1.50
2023-02-08T20:17:04.681Z,-1.40
2023-02-08T20:22:09.705Z,-1.60
2023-02-08T20:27:13.739Z,-1.60
2023-02-08T20:32:19.990Z,-1.70
2023-02-08T20:37:24.277Z,-1.80
2023-02-08T20:42:27.803Z,-1.90
2023-02-08T20:47:41.740Z,-1.90
2023-02-08T20:52:49.880Z,-1.90
2023-02-08T20:57:53.267Z,-1.70
2023-02-08T21:02:57.997Z,-1.70
2023-02-08T21:08:01.273Z,-1.90
2023-02-08T21:13:05.247Z,-1.90
2023-02-08T21:18:10.502Z,-1.80
2023-02-08T21:23:13.942Z,-1.90
2023-02-08T21:28:17.326Z,-1.90
2023-02-08T21:33:21.935Z,-1.60
2023-02-08T21:38:25.756Z,-1.70
2023-02-08T21:43:29.042Z,-1.80
2023-02-08T21:48:54.170Z,-1.80
2023-02-08T21:54:16.508Z,-1.70
2023-02-08T21:59:19.742Z,-1.80
2023-02-08T22:04:24.389Z,-2.00
2023-02-08T22:09:29.080Z,-2.10
2023-02-08T22:14:33.722Z,-2.10
2023-02-08T22:19:38.858Z,-2.30
2023-02-08T22:24:42.554Z,-2.30
2023-02-08T22:29:45.806Z,-2.50
2023-02-08T22:34:50.509Z,-2.60
2023-02-08T22:39:53.852Z,-2.70
2023-02-08T22:44:57.555Z,-2.80
2023-02-08T22:50:02.234Z,-2.90
2023-02-08T22:55:06.622Z,-3.10
2023-02-08T23:00:13.490Z,-3.00
2023-02-08T23:05:19.263Z,-3.00
2023-02-08T23:10:22.524Z,-2.80
2023-02-08T23:15:25.883Z,-2.80
2023-02-08T23:20:30.627Z,-2.80
2023-02-08T23:25:33.961Z,-2.80
2023-02-08T23:30:39.197Z,-2.90
2023-02-08T23:35:44.301Z,-2.90
2023-02-08T23:40:47.587Z,-2.90
2023-02-08T23:45:50.888Z,-2.90
2023-02-08T23:50:59.263Z,-3.00
2023-02-08T23:56:06.490Z,-3.10
